KCNW/CNW METAR and TAF weather

Enter ICAO airport designator
Station Type Date Time Source
KCNW METAR 2020/06/02 16:55 UTC NOAA

KCNW 021655Z 16007KT 10SM SCT038 30/19 A3010


Station Type Date Time Source
KCNW Decoded METAR 2020/06/02 16:55 UTC NOAA

Station name not available
Jun 02, 2020 - 12:55 PM EDT / 2020.06.02 1655 UTC
Wind: from the SSE (160 degrees) at 8 MPH (7 KT):0
Visibility: 10 mile(s):0
Sky conditions: partly cloudy
Temperature: 86 F (30 C)
Dew Point: 66 F (19 C)
Relative Humidity: 51%
Pressure (altimeter): 30.1 in. Hg (1019 hPa)
ob: KCNW 021655Z 16007KT 10SM SCT038 30/19 A3010
cycle: 17

Station Type Date Time Source
KCNW TAF UTC NOAA

Error!

Example: see airport list